Terminal Aerodrome Forecast
Issued by NWS Brownsville, TX

Home | Current Version | Previous Version | Text Only | Print | Product List | Glossary On
Versions: 1 2 3 4 5 6 7 8 9 10 11 12 13 14 15
000
FTUS44 KBRO 251135
TAFBRO
TAF
KBRO 251135Z 2512/2612 14007KT P6SM SCT020
     FM251500 13015G20KT P6SM FEW040
     FM260200 12007KT P6SM SCT015=

USA.gov is the U.S. government's official web portal to all federal, state and local government web resources and services.